Time;durP1;ratioP1;P1;durP2;ratioP2;P2;SDS_P1;SDS_P2;PMS_P1;PMS_P2;Temp;Humidity;BMP_temperature;BMP_pressure;BME280_temperature;BME280_humidity;BME280_pressure;Samples;Min_cycle;Max_cycle;Signal;HPM_P1;HPM_P2
2022/07/23 00:01:32;;;;;;;17.92;10.60;;;;;;;24.34;53.57;92763.13;4768773;30;20044;-77
2022/07/23 00:03:58;;;;;;;18.08;10.80;;;;;;;24.36;53.22;92752.84;4785996;30;20441;-77
2022/07/23 00:06:24;;;;;;;17.23;10.52;;;;;;;24.36;53.05;92739.47;4756132;30;20104;-77
2022/07/23 00:08:50;;;;;;;17.65;11.10;;;;;;;24.44;53.26;92714.34;4771052;30;20396;-77
2022/07/23 00:11:15;;;;;;;18.88;10.85;;;;;;;24.55;52.91;92720.59;4786583;30;20033;-77
2022/07/23 00:13:41;;;;;;;17.08;10.95;;;;;;;24.52;53.40;92713.31;4753523;30;20043;-77
2022/07/23 00:16:07;;;;;;;15.32;10.10;;;;;;;24.43;53.66;92712.78;4770928;30;20101;-76
2022/07/23 00:18:33;;;;;;;15.15;10.65;;;;;;;24.35;53.28;92706.59;4786779;30;20482;-77
2022/07/23 00:20:59;;;;;;;34.55;11.23;;;;;;;24.29;53.32;92710.75;4755633;30;20066;-77
2022/07/23 00:23:24;;;;;;;16.02;10.50;;;;;;;24.24;53.81;92703.81;4763244;30;20044;-76
2022/07/23 00:25:51;;;;;;;19.02;11.35;;;;;;;24.20;54.96;92716.38;4786673;30;20403;-77
2022/07/23 00:28:18;;;;;;;17.00;11.88;;;;;;;24.18;54.91;92733.94;4770571;30;20104;-77
2022/07/23 00:30:44;;;;;;;20.48;11.23;;;;;;;24.17;54.99;92757.22;4755977;30;20130;-77
2022/07/23 00:33:11;;;;;;;18.95;11.02;;;;;;;24.18;54.98;92798.13;4767467;30;20106;-77
2022/07/23 00:35:40;;;;;;;19.08;11.45;;;;;;;24.29;54.49;92847.91;4756082;30;20051;-77
2022/07/23 00:38:09;;;;;;;34.47;9.65;;;;;;;24.40;50.88;92788.44;4754209;30;20515;-77
2022/07/23 00:40:35;;;;;;;48.67;10.30;;;;;;;24.08;57.05;92802.19;4770682;30;20036;-77
2022/07/23 00:43:01;;;;;;;18.90;7.30;;;;;;;22.55;59.89;92782.63;4772181;30;20046;-77
2022/07/23 00:45:28;;;;;;;14.30;5.72;;;;;;;20.81;65.40;92776.59;4789778;30;20417;-77
2022/07/23 00:47:54;;;;;;;11.25;4.43;;;;;;;19.78;61.79;92902.81;4789712;30;20114;-77
2022/07/23 00:50:19;;;;;;;14.52;4.18;;;;;;;19.01;65.41;92892.00;4789704;29;20067;-78
2022/07/23 00:52:45;;;;;;;17.80;5.13;;;;;;;18.62;68.00;92897.50;4759276;30;20050;-78
2022/07/23 00:55:12;;;;;;;19.65;5.30;;;;;;;18.13;75.79;92891.97;4774368;30;20466;-78
2022/07/23 00:57:38;;;;;;;20.27;5.25;;;;;;;18.02;76.31;92880.97;4776658;30;20039;-78
2022/07/23 01:00:07;;;;;;;16.10;6.25;;;;;;;18.15;76.02;92854.53;4793952;30;20479;-77
2022/07/23 01:02:33;;;;;;;19.58;5.63;;;;;;;18.12;76.64;92858.59;4792861;30;20035;-78
2022/07/23 01:04:59;;;;;;;74.68;6.30;;;;;;;17.41;80.83;92877.88;4773257;30;20047;-77
2022/07/23 01:07:24;;;;;;;10.60;6.50;;;;;;;16.59;83.48;92880.56;4773878;30;20145;-77
2022/07/23 01:09:51;;;;;;;19.45;5.65;;;;;;;16.47;81.25;92852.13;4743075;30;20082;-77
2022/07/23 01:12:17;;;;;;;10.98;3.90;;;;;;;16.89;73.53;92825.97;4752086;30;20111;-77
2022/07/23 01:14:43;;;;;;;13.65;5.07;;;;;;;16.89;81.23;92835.72;4768798;30;20031;-77
2022/07/23 01:17:09;;;;;;;10.23;4.45;;;;;;;16.87;81.41;92833.44;4742554;30;20039;-77
2022/07/23 01:19:34;;;;;;;8.57;3.22;;;;;;;17.05;76.72;92819.03;4772817;30;20220;-78
2022/07/23 01:22:03;;;;;;;11.25;4.10;;;;;;;16.98;79.80;92812.72;4772059;30;20063;-77
2022/07/23 01:24:29;;;;;;;9.48;3.63;;;;;;;17.08;79.66;92799.13;4782138;30;20044;-77
2022/07/23 01:27:01;;;;;;;5.65;3.00;;;;;;;17.14;78.45;92808.44;4764056;30;20032;-77
2022/07/23 01:29:27;;;;;;;6.30;3.47;;;;;;;17.08;79.76;92804.41;4759573;30;20058;-77
2022/07/23 01:31:54;;;;;;;12.15;4.30;;;;;;;17.04;80.48;92806.13;4762136;30;20039;-77
2022/07/23 01:34:19;;;;;;;9.38;4.88;;;;;;;16.97;80.27;92790.75;4766945;30;20132;-77
2022/07/23 01:36:46;;;;;;;8.95;4.20;;;;;;;16.93;81.13;92779.28;4760819;30;20526;-77
2022/07/23 01:39:14;;;;;;;12.32;4.18;;;;;;;16.91;82.01;92775.38;4770241;30;20415;-77
2022/07/23 01:41:40;;;;;;;6.68;3.55;;;;;;;16.91;82.27;92759.53;4755817;30;20040;-77
2022/07/23 01:44:06;;;;;;;9.18;3.88;;;;;;;16.89;82.68;92764.34;4770331;30;20051;-77
2022/07/23 01:46:31;;;;;;;6.90;4.00;;;;;;;16.91;82.23;92764.81;4755065;30;20043;-77
2022/07/23 01:48:57;;;;;;;8.00;3.53;;;;;;;16.87;83.40;92766.56;4755096;30;20465;-77
2022/07/23 01:52:01;;;;;;;7.10;3.60;;;;;;;16.79;85.69;92776.81;4768105;30;20032;-77
2022/07/23 01:54:39;;;;;;;5.93;3.25;;;;;;;16.80;82.08;92781.03;4753252;30;20047;-77
2022/07/23 01:57:06;;;;;;;9.65;3.97;;;;;;;16.69;83.38;92777.16;4763672;30;20571;-77
2022/07/23 01:59:32;;;;;;;7.10;4.00;;;;;;;16.68;87.07;92777.47;4769641;30;20070;-77
2022/07/23 02:01:58;;;;;;;6.18;3.60;;;;;;;16.71;87.90;92782.91;4770637;30;20043;-77
2022/07/23 02:04:25;;;;;;;8.75;3.80;;;;;;;16.72;87.16;92779.16;4774304;30;20057;-77
2022/07/23 02:06:52;;;;;;;9.02;3.55;;;;;;;16.77;86.65;92781.63;4773603;30;20043;-77
2022/07/23 02:09:18;;;;;;;6.70;3.38;;;;;;;16.80;86.49;92780.28;4789943;30;20027;-77
2022/07/23 02:11:46;;;;;;;7.13;3.53;;;;;;;16.81;87.02;92787.88;4771967;30;20031;-77
2022/07/23 02:14:12;;;;;;;6.28;3.55;;;;;;;16.80;88.80;92804.84;4789859;30;20100;-77
2022/07/23 02:16:37;;;;;;;7.00;3.67;;;;;;;16.88;88.99;92799.81;4785217;30;20063;-77
2022/07/23 02:19:03;;;;;;;7.13;3.33;;;;;;;16.87;88.64;92788.47;4764747;30;20058;-77
2022/07/23 02:21:29;;;;;;;7.13;3.65;;;;;;;16.88;88.36;92792.66;4762082;30;20127;-77
2022/07/23 02:23:55;;;;;;;7.22;3.63;;;;;;;16.91;90.87;92781.47;4756336;30;20450;-77
2022/07/23 02:26:20;;;;;;;6.28;3.90;;;;;;;17.02;91.88;92792.44;4755671;30;20456;-77
2022/07/23 02:28:49;;;;;;;9.63;4.65;;;;;;;17.04;92.04;92795.56;4758922;30;20126;-77
2022/07/23 02:31:14;;;;;;;7.88;4.13;;;;;;;17.14;89.34;92795.19;4758691;30;20493;-77
2022/07/23 02:33:40;;;;;;;5.93;3.70;;;;;;;17.13;90.13;92787.56;4773936;30;20096;-77
2022/07/23 02:36:06;;;;;;;7.78;4.00;;;;;;;17.14;89.09;92787.28;4773467;30;20404;-77
2022/07/23 02:38:31;;;;;;;7.38;4.63;;;;;;;17.17;89.74;92791.91;4759950;30;20363;-77
2022/07/23 02:40:57;;;;;;;6.57;4.18;;;;;;;17.22;92.94;92777.72;4755500;30;20101;-77
2022/07/23 02:43:23;;;;;;;8.55;4.65;;;;;;;17.28;90.96;92774.56;4740665;30;20452;-76
2022/07/23 02:45:48;;;;;;;7.70;4.43;;;;;;;17.31;91.39;92770.50;4755590;30;20407;-77
2022/07/23 02:48:14;;;;;;;6.95;4.47;;;;;;;17.30;91.16;92776.91;4755595;30;20042;-77
2022/07/23 02:50:42;;;;;;;7.13;4.43;;;;;;;17.30;91.62;92784.09;4758013;30;20562;-77
2022/07/23 02:53:08;;;;;;;6.38;4.05;;;;;;;17.27;90.17;92783.63;4758727;30;20039;-77
2022/07/23 02:55:34;;;;;;;7.90;4.72;;;;;;;17.27;90.43;92794.22;4758346;30;20414;-77
2022/07/23 02:58:01;;;;;;;6.75;4.55;;;;;;;17.31;91.53;92780.31;4758536;30;20043;-77
2022/07/23 03:00:27;;;;;;;9.57;5.10;;;;;;;17.35;92.42;92775.94;4772894;30;20386;-77
2022/07/23 03:02:52;;;;;;;7.97;4.97;;;;;;;17.33;91.42;92776.25;4755779;30;20443;-77
2022/07/23 03:05:18;;;;;;;9.88;5.38;;;;;;;17.35;90.72;92781.25;4754965;30;20101;-77
2022/07/23 03:07:44;;;;;;;10.13;5.07;;;;;;;17.32;92.19;92779.25;4740079;30;20036;-77
2022/07/23 03:10:09;;;;;;;8.65;4.97;;;;;;;17.33;90.44;92780.78;4780272;30;20042;-77
2022/07/23 03:12:35;;;;;;;8.07;4.82;;;;;;;17.33;89.77;92765.69;4771086;30;20470;-77
2022/07/23 03:15:02;;;;;;;11.02;4.70;;;;;;;17.41;86.09;92766.75;4772160;30;20095;-78
2022/07/23 03:17:27;;;;;;;8.02;4.63;;;;;;;17.50;83.85;92770.09;4771291;30;20043;-78
2022/07/23 03:19:53;;;;;;;7.97;4.93;;;;;;;17.58;83.25;92777.19;4755625;30;20058;-77
2022/07/23 03:22:18;;;;;;;8.13;5.20;;;;;;;17.64;83.03;92777.78;4758820;30;20056;-77
2022/07/23 03:24:53;;;;;;;7.47;4.40;;;;;;;17.64;82.13;92778.56;4789470;30;20548;-77
2022/07/23 03:27:25;;;;;;;8.00;4.80;;;;;;;17.63;81.53;92781.50;4772802;30;20051;-77
2022/07/23 03:29:52;;;;;;;9.35;5.00;;;;;;;17.62;81.57;92782.63;4787303;30;20035;-77
2022/07/23 03:32:18;;;;;;;7.72;4.82;;;;;;;17.59;82.63;92784.03;4771473;30;20055;-77
2022/07/23 03:34:44;;;;;;;9.98;4.88;;;;;;;17.58;82.68;92777.19;4773708;30;20345;-77
2022/07/23 03:37:10;;;;;;;11.25;5.50;;;;;;;17.55;85.63;92777.84;4772506;30;20071;-77
2022/07/23 03:39:36;;;;;;;9.23;5.57;;;;;;;17.51;88.81;92779.56;4772843;30;20116;-77
2022/07/23 03:42:02;;;;;;;9.57;5.18;;;;;;;17.49;87.34;92773.81;4755668;30;20056;-77
2022/07/23 03:44:28;;;;;;;8.93;5.10;;;;;;;17.46;86.66;92763.91;4740499;30;20048;-77
2022/07/23 03:46:53;;;;;;;10.32;5.50;;;;;;;17.50;87.35;92759.50;4770981;30;20037;-77
2022/07/23 03:49:19;;;;;;;9.00;5.28;;;;;;;17.46;87.12;92759.38;4755980;30;20031;-77
2022/07/23 03:51:45;;;;;;;11.07;5.03;;;;;;;17.43;86.77;92757.38;4754158;30;20070;-77
2022/07/23 03:54:12;;;;;;;9.98;5.22;;;;;;;17.38;85.39;92757.56;4772446;30;20047;-77
2022/07/23 03:56:38;;;;;;;12.75;5.88;;;;;;;17.36;85.05;92754.47;4771959;30;20047;-77
2022/07/23 03:59:03;;;;;;;12.65;5.50;;;;;;;17.37;85.96;92757.88;4772248;30;20115;-77
2022/07/23 04:01:29;;;;;;;11.90;6.22;;;;;;;17.33;88.73;92752.44;4758446;30;20404;-77
2022/07/23 04:03:54;;;;;;;9.07;5.85;;;;;;;17.35;87.04;92763.50;4740517;30;20111;-77
2022/07/23 04:06:20;;;;;;;9.45;5.75;;;;;;;17.33;85.23;92759.63;4754368;30;20047;-77
2022/07/23 04:08:46;;;;;;;14.15;5.50;;;;;;;17.34;84.29;92761.16;4754396;30;20051;-77
2022/07/23 04:11:12;;;;;;;10.20;6.05;;;;;;;17.31;85.40;92762.56;4768324;30;20383;-77
2022/07/23 04:13:37;;;;;;;14.75;7.45;;;;;;;17.28;85.42;92765.88;4757150;30;20039;-77
2022/07/23 04:16:03;;;;;;;17.98;10.27;;;;;;;17.27;85.47;92773.03;4772012;30;20051;-77
2022/07/23 04:18:29;;;;;;;20.15;9.30;;;;;;;17.27;85.93;92778.34;4771830;30;20479;-77
2022/07/23 04:21:02;;;;;;;16.75;7.40;;;;;;;17.28;84.90;92784.38;4766532;30;20122;-77
2022/07/23 04:23:28;;;;;;;15.88;6.90;;;;;;;17.29;83.85;92778.00;4798053;29;20042;-77
2022/07/23 04:25:53;;;;;;;13.13;6.57;;;;;;;17.31;83.82;92783.75;4770963;30;20051;-77
2022/07/23 04:28:19;;;;;;;12.88;6.75;;;;;;;17.37;84.43;92782.47;4771489;30;20514;-77
2022/07/23 04:30:44;;;;;;;12.27;6.38;;;;;;;17.38;85.46;92783.25;4757041;30;20039;-77
2022/07/23 04:33:12;;;;;;;9.45;6.25;;;;;;;17.39;84.90;92779.50;4771952;30;20047;-77
2022/07/23 04:35:38;;;;;;;10.52;6.30;;;;;;;17.40;84.86;92770.47;4757744;30;20452;-77
2022/07/23 04:38:18;;;;;;;11.20;6.47;;;;;;;17.37;83.49;92765.81;4783576;29;20502;-77
2022/07/23 04:40:44;;;;;;;12.05;6.25;;;;;;;17.37;83.04;92765.81;4786081;29;20070;-77
2022/07/23 04:43:10;;;;;;;14.90;6.50;;;;;;;17.31;84.50;92764.44;4774924;29;20046;-77
2022/07/23 04:45:42;;;;;;;9.25;6.20;;;;;;;17.33;83.79;92772.84;4769538;29;20058;-78
2022/07/23 04:48:08;;;;;;;10.55;6.10;;;;;;;17.33;83.72;92772.84;4780622;29;20042;-76
2022/07/23 04:50:34;;;;;;;13.52;6.78;;;;;;;17.33;83.62;92778.91;4769949;29;20042;-76
2022/07/23 04:52:59;;;;;;;11.43;6.65;;;;;;;17.37;83.38;92777.19;4797316;29;20070;-76
2022/07/23 04:55:25;;;;;;;10.18;6.18;;;;;;;17.42;82.46;92781.50;4785705;29;20039;-75
2022/07/23 04:57:51;;;;;;;10.75;6.38;;;;;;;17.54;83.56;92784.25;4781010;30;20410;-76
2022/07/23 05:00:16;;;;;;;11.63;6.55;;;;;;;17.61;84.06;92787.16;4781945;29;20126;-76
2022/07/23 05:02:42;;;;;;;12.32;6.47;;;;;;;17.67;83.40;92793.81;4769473;30;20444;-75
2022/07/23 05:05:08;;;;;;;13.90;6.15;;;;;;;17.76;83.54;92800.91;4775096;29;20058;-75
2022/07/23 05:07:34;;;;;;;11.05;5.82;;;;;;;17.85;82.29;92806.94;4769724;29;20043;-76
2022/07/23 05:09:59;;;;;;;10.98;6.00;;;;;;;17.95;80.76;92814.50;4786190;29;20092;-75
2022/07/23 05:12:25;;;;;;;12.65;6.57;;;;;;;18.07;79.39;92811.91;4783029;29;20058;-76
2022/07/23 05:14:52;;;;;;;17.15;6.50;;;;;;;18.20;78.68;92822.56;4798088;29;20415;-75
2022/07/23 05:17:18;;;;;;;9.32;5.75;;;;;;;18.30;79.79;92811.56;4770509;29;20410;-75
2022/07/23 05:19:44;;;;;;;11.63;5.93;;;;;;;18.39;80.52;92817.53;4780585;29;20057;-75
2022/07/23 05:22:10;;;;;;;11.98;6.03;;;;;;;18.45;82.03;92816.25;4772159;29;20406;-76
2022/07/23 05:24:35;;;;;;;12.93;6.22;;;;;;;18.48;82.23;92817.47;4775128;29;20413;-75
2022/07/23 05:27:02;;;;;;;16.00;6.50;;;;;;;18.50;82.45;92813.38;4774894;29;20474;-75
2022/07/23 05:29:27;;;;;;;11.15;6.57;;;;;;;18.51;79.98;92807.00;4758324;29;20090;-75
2022/07/23 05:31:53;;;;;;;9.77;6.07;;;;;;;18.54;78.25;92807.44;4774048;29;20045;-75
2022/07/23 05:34:19;;;;;;;11.35;7.10;;;;;;;18.60;79.83;92811.41;4777263;29;20287;-75
2022/07/23 05:36:46;;;;;;;13.38;6.43;;;;;;;18.63;79.83;92813.44;4780727;29;20146;-75
2022/07/23 05:39:12;;;;;;;10.85;6.65;;;;;;;18.66;80.18;92810.13;4782421;29;20068;-75
2022/07/23 05:41:37;;;;;;;13.40;7.30;;;;;;;18.71;79.83;92809.91;4771715;29;20043;-76
2022/07/23 05:44:03;;;;;;;12.80;7.20;;;;;;;18.77;81.64;92813.13;4762228;29;20058;-76
2022/07/23 05:46:30;;;;;;;15.68;7.90;;;;;;;18.77;81.37;92798.00;4775393;29;20466;-75
2022/07/23 05:49:00;;;;;;;17.77;7.10;;;;;;;18.81;80.80;92808.75;4769140;30;20035;-76
2022/07/23 05:51:50;;;;;;;12.80;7.10;;;;;;;18.88;79.83;92808.97;4764896;29;20046;-75
2022/07/23 05:54:24;;;;;;;18.83;7.38;;;;;;;18.97;79.44;92800.94;4783808;29;20043;-75
2022/07/23 05:56:50;;;;;;;11.77;6.95;;;;;;;19.07;79.12;92803.13;4775509;29;20485;-75
2022/07/23 05:59:16;;;;;;;15.35;7.32;;;;;;;19.26;78.31;92805.25;4767634;30;20078;-76
2022/07/23 06:01:42;;;;;;;14.52;6.88;;;;;;;19.45;76.84;92799.38;4768618;30;20523;-76
2022/07/23 06:04:10;;;;;;;16.10;7.15;;;;;;;19.54;75.16;92803.47;4775953;29;20102;-75
2022/07/23 06:06:38;;;;;;;12.52;7.25;;;;;;;19.79;74.41;92797.34;4761902;30;20145;-76
2022/07/23 06:09:25;;;;;;;15.00;7.57;;;;;;;20.42;72.48;92804.78;4776328;29;20051;-77
2022/07/23 06:11:50;;;;;;;13.20;7.38;;;;;;;21.00;70.95;92805.16;4780895;29;20125;-77
2022/07/23 06:14:16;;;;;;;13.63;7.72;;;;;;;21.53;65.95;92802.25;4777124;29;20133;-79
2022/07/23 06:16:49;;;;;;;14.02;7.22;;;;;;;22.02;64.03;92788.44;4773110;29;20505;-78
2022/07/23 06:19:15;;;;;;;14.88;8.10;;;;;;;22.52;67.25;92791.34;4781044;30;20560;-79
2022/07/23 06:21:40;;;;;;;14.88;8.30;;;;;;;23.44;61.59;92794.03;4793217;29;20043;-80
2022/07/23 06:24:06;;;;;;;17.55;9.55;;;;;;;23.80;58.37;92794.56;4790372;30;20051;-78
2022/07/23 06:26:32;;;;;;;15.57;8.82;;;;;;;24.44;57.72;92807.97;4786375;29;20031;-79
2022/07/23 06:29:00;;;;;;;18.42;10.43;;;;;;;24.81;56.27;92807.25;4796787;29;20030;-80
2022/07/23 06:31:25;;;;;;;18.50;10.85;;;;;;;25.04;56.38;92804.41;4794409;29;20035;-78
2022/07/23 06:33:51;;;;;;;23.85;12.18;;;;;;;25.20;56.41;92812.25;4785096;29;20042;-78
2022/07/23 06:36:17;;;;;;;21.33;12.45;;;;;;;24.64;55.67;92809.38;4800497;29;20508;-78
2022/07/23 06:38:42;;;;;;;28.02;14.40;;;;;;;24.00;58.92;92805.91;4788220;29;20430;-78
2022/07/23 06:41:08;;;;;;;24.63;13.30;;;;;;;23.41;61.27;92814.22;4789758;29;20053;-78
2022/07/23 06:43:34;;;;;;;26.42;14.48;;;;;;;23.16;62.80;92813.06;4777182;29;20047;-78
2022/07/23 06:46:00;;;;;;;26.73;14.50;;;;;;;23.13;65.19;92811.09;4807865;29;20551;-78
2022/07/23 06:48:26;;;;;;;25.30;13.85;;;;;;;23.23;63.81;92811.25;4780305;29;20059;-78
2022/07/23 06:50:52;;;;;;;25.10;14.75;;;;;;;23.49;63.40;92813.19;4786400;29;20054;-77
2022/07/23 06:53:22;;;;;;;26.98;14.38;;;;;;;23.72;63.44;92815.06;4776823;29;20034;-78
2022/07/23 06:55:47;;;;;;;27.10;15.02;;;;;;;23.80;61.99;92811.41;4796653;29;20039;-78
2022/07/23 06:58:13;;;;;;;30.70;14.00;;;;;;;24.06;60.83;92810.56;4781158;29;20084;-78
2022/07/23 07:00:40;;;;;;;26.35;14.63;;;;;;;23.77;61.22;92817.44;4776566;29;20043;-78
2022/07/23 07:03:05;;;;;;;26.77;14.50;;;;;;;23.80;61.42;92814.06;4780229;29;20406;-78
2022/07/23 07:05:32;;;;;;;29.58;15.85;;;;;;;23.88;62.66;92823.72;4788340;29;20043;-78
2022/07/23 07:07:57;;;;;;;25.25;14.95;;;;;;;24.08;62.14;92826.28;4782276;29;20479;-78
2022/07/23 07:10:23;;;;;;;26.25;15.25;;;;;;;24.00;59.77;92822.75;4763923;30;20039;-77
2022/07/23 07:12:49;;;;;;;27.55;13.85;;;;;;;24.22;61.47;92823.75;4798313;29;20039;-77
2022/07/23 07:15:14;;;;;;;29.55;14.68;;;;;;;24.23;63.53;92816.53;4807918;29;20038;-78
2022/07/23 07:17:42;;;;;;;23.90;14.27;;;;;;;24.29;63.31;92820.41;4781157;30;20039;-78
2022/07/23 07:20:08;;;;;;;27.08;14.48;;;;;;;24.31;64.73;92826.16;4794248;29;20474;-78
2022/07/23 07:22:34;;;;;;;23.92;13.43;;;;;;;24.48;63.88;92819.53;4790079;29;20055;-77
2022/07/23 07:24:59;;;;;;;21.58;13.05;;;;;;;24.37;65.48;92826.63;4783109;29;20043;-77
2022/07/23 07:27:25;;;;;;;25.73;13.95;;;;;;;24.27;65.39;92833.38;4774858;29;20375;-78
2022/07/23 07:29:51;;;;;;;25.17;12.68;;;;;;;24.04;66.24;92828.88;4789643;29;20055;-78
2022/07/23 07:32:16;;;;;;;21.17;12.68;;;;;;;23.81;68.46;92836.97;4795322;29;20145;-78
2022/07/23 07:34:42;;;;;;;26.58;14.25;;;;;;;23.71;69.19;92834.91;4793722;29;20047;-77
2022/07/23 07:37:07;;;;;;;27.75;14.02;;;;;;;23.52;69.62;92835.75;4792470;29;20326;-77
2022/07/23 07:39:33;;;;;;;25.70;13.75;;;;;;;23.37;67.92;92825.97;4797578;29;20516;-78
2022/07/23 07:41:58;;;;;;;28.55;13.77;;;;;;;23.43;70.49;92819.22;4800216;29;20049;-78
2022/07/23 07:44:24;;;;;;;22.60;13.13;;;;;;;23.74;70.13;92822.72;4794470;29;20100;-78
2022/07/23 07:46:49;;;;;;;25.17;13.27;;;;;;;23.74;70.06;92822.72;4774422;29;20039;-78
2022/07/23 07:49:17;;;;;;;27.40;13.07;;;;;;;23.87;69.77;92819.50;4789449;29;20046;-78
2022/07/23 07:51:42;;;;;;;30.27;13.30;;;;;;;24.18;68.79;92828.28;4772696;29;20065;-78
2022/07/23 07:54:08;;;;;;;25.98;13.00;;;;;;;24.09;68.54;92817.09;4776892;29;20078;-78
2022/07/23 07:56:34;;;;;;;34.65;13.38;;;;;;;24.36;69.85;92825.06;4771293;29;20100;-77
2022/07/23 07:59:00;;;;;;;28.58;13.68;;;;;;;24.65;69.04;92818.94;4799186;29;20043;-78
2022/07/23 08:01:26;;;;;;;27.27;13.55;;;;;;;24.76;67.49;92831.69;4793497;29;20077;-78
2022/07/23 08:03:52;;;;;;;29.80;13.45;;;;;;;24.67;65.82;92832.72;4789256;29;20074;-79
2022/07/23 08:06:18;;;;;;;29.10;14.10;;;;;;;24.50;67.38;92830.63;4805043;29;20050;-78
2022/07/23 08:08:43;;;;;;;28.05;14.25;;;;;;;24.26;66.42;92827.25;4796034;29;20094;-77
2022/07/23 08:11:09;;;;;;;28.10;14.02;;;;;;;24.51;67.20;92826.81;4800077;29;20043;-77
2022/07/23 08:13:34;;;;;;;26.92;14.95;;;;;;;24.77;65.58;92833.19;4788846;29;20055;-78
2022/07/23 08:16:00;;;;;;;23.25;13.30;;;;;;;24.89;65.53;92836.41;4796289;29;20045;-78
2022/07/23 08:18:25;;;;;;;31.40;15.13;;;;;;;24.70;64.69;92834.69;4771287;30;20051;-79
2022/07/23 08:20:51;;;;;;;29.38;14.23;;;;;;;24.76;65.82;92834.34;4753654;29;20059;-80
2022/07/23 08:23:19;;;;;;;26.88;14.52;;;;;;;24.72;65.55;92835.09;4803955;29;20929;-78
2022/07/23 08:25:46;;;;;;;28.77;13.98;;;;;;;24.86;65.40;92841.75;4796877;29;20086;-78
2022/07/23 08:28:14;;;;;;;26.83;13.75;;;;;;;25.02;64.82;92836.91;4775933;29;20418;-78
2022/07/23 08:30:41;;;;;;;28.23;14.85;;;;;;;25.25;64.06;92833.34;4789664;29;20096;-78
2022/07/23 08:33:13;;;;;;;28.77;14.88;;;;;;;25.19;64.98;92837.47;4785852;29;20045;-77
2022/07/23 08:35:41;;;;;;;28.73;13.80;;;;;;;25.30;63.32;92843.69;4794270;29;20058;-76
2022/07/23 08:38:09;;;;;;;30.88;14.90;;;;;;;25.00;63.37;92847.22;4789954;29;20046;-77
2022/07/23 08:40:37;;;;;;;30.45;14.88;;;;;;;25.12;65.08;92841.59;4790335;29;20092;-78
2022/07/23 08:43:07;;;;;;;24.30;14.45;;;;;;;25.39;64.15;92843.41;4789561;29;21411;-77
2022/07/23 08:45:40;;;;;;;29.88;14.75;;;;;;;25.17;65.42;92850.44;4786896;29;20063;-77
2022/07/23 08:48:10;;;;;;;25.63;13.32;;;;;;;25.01;65.71;92848.75;4789896;29;20054;-78
2022/07/23 08:50:37;;;;;;;24.27;14.68;;;;;;;24.80;66.40;92843.97;4778193;29;20506;-78
2022/07/23 08:53:05;;;;;;;27.10;14.27;;;;;;;24.64;65.89;92849.53;4786720;29;20031;-77
2022/07/23 08:55:31;;;;;;;26.77;14.20;;;;;;;24.43;66.34;92849.22;4792362;29;20302;-77
2022/07/23 08:57:57;;;;;;;27.73;13.65;;;;;;;24.35;68.57;92850.31;4771079;29;20127;-77
2022/07/23 09:00:23;;;;;;;30.77;14.50;;;;;;;24.41;66.21;92849.63;4793102;29;20194;-76
2022/07/23 09:02:50;;;;;;;24.52;13.60;;;;;;;24.40;66.22;92839.28;4773994;30;20403;-76
2022/07/23 09:05:16;;;;;;;25.63;13.88;;;;;;;24.60;64.67;92842.59;4778337;29;20414;-77
2022/07/23 09:08:05;;;;;;;24.17;13.45;;;;;;;24.80;63.98;92838.59;4783145;29;20127;-77
2022/07/23 09:10:52;;;;;;;24.95;13.30;;;;;;;24.83;60.74;92842.47;4790566;29;20059;-76
2022/07/23 09:13:33;;;;;;;26.65;12.77;;;;;;;25.01;61.90;92842.63;4787939;29;20038;-77
2022/07/23 09:16:02;;;;;;;25.52;13.48;;;;;;;24.92;62.55;92841.00;4775719;29;20088;-77
2022/07/23 09:18:34;;;;;;;23.70;13.00;;;;;;;25.09;60.16;92836.22;4771065;29;20039;-76
2022/07/23 09:21:09;;;;;;;28.08;13.38;;;;;;;25.33;59.27;92837.59;4797044;29;20046;-76
2022/07/23 09:23:57;;;;;;;25.80;13.00;;;;;;;25.28;59.02;92843.28;4769061;29;20035;-76
2022/07/23 09:26:23;;;;;;;23.13;12.73;;;;;;;25.37;60.21;92843.75;4782051;29;20462;-77
2022/07/23 09:29:09;;;;;;;25.38;12.23;;;;;;;25.40;58.92;92848.41;4794948;29;20058;-77
2022/07/23 09:32:30;;;;;;;22.73;12.20;;;;;;;25.49;59.99;92834.69;4795871;29;20495;-77
2022/07/23 09:34:55;;;;;;;20.88;11.82;;;;;;;25.62;60.43;92845.88;4789759;29;20031;-76
2022/07/23 09:37:21;;;;;;;20.48;11.60;;;;;;;25.69;58.79;92846.69;4789699;29;20035;-76
2022/07/23 09:39:48;;;;;;;20.17;11.95;;;;;;;25.77;56.55;92844.84;4787331;29;20047;-77
2022/07/23 09:42:14;;;;;;;20.77;12.15;;;;;;;25.99;58.29;92839.66;4791214;29;20102;-76
2022/07/23 09:44:45;;;;;;;18.15;12.07;;;;;;;26.14;57.59;92836.66;4785281;29;20053;-76
2022/07/23 09:47:10;;;;;;;21.27;11.85;;;;;;;26.37;57.45;92833.72;4792201;29;20038;-76
2022/07/23 09:49:36;;;;;;;20.05;12.25;;;;;;;26.14;57.71;92835.88;4790888;29;20042;-76
2022/07/23 09:52:03;;;;;;;24.27;12.50;;;;;;;25.99;58.70;92832.38;4772456;29;20059;-76
2022/07/23 09:54:38;;;;;;;21.88;12.50;;;;;;;26.19;57.17;92838.22;4789670;29;20055;-76
2022/07/23 09:57:12;;;;;;;21.05;12.65;;;;;;;26.17;58.29;92845.88;4780382;29;20038;-76
2022/07/23 09:59:38;;;;;;;21.02;12.23;;;;;;;26.55;58.55;92836.50;4794275;29;20113;-77
2022/07/23 10:02:06;;;;;;;21.50;12.18;;;;;;;26.50;56.79;92841.41;4774886;29;20043;-77
2022/07/23 10:04:41;;;;;;;21.20;12.52;;;;;;;26.52;58.73;92841.81;4780807;29;20501;-77
2022/07/23 10:07:39;;;;;;;16.45;11.25;;;;;;;26.86;55.44;92847.69;4780992;30;20142;-76
2022/07/23 10:10:34;;;;;;;20.75;12.00;;;;;;;26.96;55.32;92844.28;4766974;29;20135;-76
2022/07/23 10:13:50;;;;;;;21.00;11.63;;;;;;;26.95;56.07;92839.28;4786918;29;20387;-77
2022/07/23 10:16:13;;;;;;;20.30;11.35;;;;;;;27.23;55.37;92837.84;4779131;30;20074;-76
2022/07/23 10:18:39;;;;;;;19.58;11.00;;;;;;;27.31;54.79;92834.78;4774264;29;20114;-76
2022/07/23 10:21:08;;;;;;;20.85;10.75;;;;;;;27.28;53.50;92834.78;4788118;29;20059;-77
2022/07/23 10:23:37;;;;;;;17.98;11.68;;;;;;;27.29;54.10;92834.41;4794223;29;20100;-76
2022/07/23 10:26:06;;;;;;;19.85;11.02;;;;;;;27.32;53.30;92838.22;4777812;30;20043;-76
2022/07/23 10:28:59;;;;;;;16.63;10.20;;;;;;;27.37;52.97;92825.16;4772763;30;20042;-77
2022/07/23 10:32:09;;;;;;;15.25;10.23;;;;;;;27.01;49.87;92821.66;4779767;29;20045;-76
2022/07/23 10:34:48;;;;;;;17.80;10.48;;;;;;;26.88;51.36;92826.59;4792839;29;20378;-77
2022/07/23 10:37:21;;;;;;;19.42;9.50;;;;;;;26.54;54.28;92815.38;4801589;29;20493;-76
2022/07/23 10:39:47;;;;;;;17.80;10.23;;;;;;;26.47;53.82;92813.41;4794489;29;20406;-76
2022/07/23 10:42:17;;;;;;;15.18;10.27;;;;;;;26.48;54.55;92811.50;4773864;30;20047;-76
2022/07/23 10:44:45;;;;;;;17.15;10.65;;;;;;;26.49;52.95;92813.06;4797908;29;20039;-76
2022/07/23 10:50:24;;;;;;;19.30;10.43;;;;;;;26.28;54.38;92806.47;4726576;30;20386;-76
2022/07/23 10:53:12;;;;;;;16.90;10.10;;;;;;;26.37;52.31;92806.88;4719125;30;20052;-76
2022/07/23 10:55:37;;;;;;;15.38;9.88;;;;;;;26.37;53.16;92812.25;4771336;29;20055;-76
2022/07/23 10:58:04;;;;;;;16.95;10.25;;;;;;;26.48;53.97;92816.88;4791732;29;20039;-76
2022/07/23 11:00:32;;;;;;;19.55;9.90;;;;;;;26.69;50.00;92818.91;4780204;29;20118;-77
2022/07/23 11:02:59;;;;;;;17.30;9.95;;;;;;;26.98;51.04;92815.13;4778410;29;20518;-76
2022/07/23 11:05:43;;;;;;;17.33;9.98;;;;;;;27.42;51.00;92815.94;4780037;29;20065;-77
2022/07/23 11:08:14;;;;;;;13.38;8.50;;;;;;;27.49;43.39;92818.63;4769426;29;20043;-76
2022/07/23 11:10:50;;;;;;;12.13;8.48;;;;;;;27.50;45.20;92820.19;4787385;29;20049;-77
2022/07/23 11:13:22;;;;;;;15.85;8.45;;;;;;;27.36;47.86;92814.81;4804423;29;20039;-76
2022/07/23 11:16:08;;;;;;;12.82;9.40;;;;;;;27.33;46.96;92804.81;4791525;29;20046;-76
2022/07/23 11:18:39;;;;;;;13.52;9.13;;;;;;;27.47;49.65;92809.44;4804016;29;20039;-76
2022/07/23 11:21:20;;;;;;;16.85;10.40;;;;;;;27.22;49.37;92807.50;4774025;30;20067;-76
2022/07/23 11:24:06;;;;;;;13.77;9.48;;;;;;;27.24;50.60;92813.25;4781195;30;20463;-76
2022/07/23 11:26:38;;;;;;;14.40;9.95;;;;;;;27.14;49.94;92819.38;4780963;30;20528;-77
2022/07/23 11:29:31;;;;;;;17.00;10.80;;;;;;;27.16;48.39;92812.47;4752612;30;20534;-77
2022/07/23 11:32:17;;;;;;;16.02;9.82;;;;;;;27.57;48.68;92804.06;4765701;30;20059;-77
2022/07/23 11:34:48;;;;;;;13.85;9.55;;;;;;;27.47;51.09;92804.84;4784545;29;20356;-77